< < Back
Terminal Aerodrome Forecast


Current Version              Previous Versions:   1  2  3  4  5  6  7  8  9  

Terminal Aerodrome Forecast

249
FTUS42 KJAX 292300
TAFSSI
TAF
KSSI 292320Z 3000/3024 16005KT P6SM FEW050 SCT100 BKN250
     FM300200 18005KT P6SM SCT100 BKN250
     FM300800 30005KT 6SM BR SCT060 BKN100
     FM301600 35007KT P6SM FEW035 SCT050 BKN150
     FM302300 01004KT P6SM FEW020 SCT030=



Latest METAR

451
SAUS70 KWBC 301200 RRT
MTRSSI
METAR KSSI 301153Z AUTO 33006KT 9SM CLR 17/17 A2997 RMK AO2 SLP149
T01720167 10206 20172 52008


USA.gov is the U.S. government's official web portal to all federal, state and local government web resources and services.